createdAt,value
2022-10-07T00:00:21.566Z,96470.72
2022-10-07T00:02:50.425Z,96467.45
2022-10-07T00:05:19.212Z,96471.24
2022-10-07T00:07:47.971Z,96467.88
2022-10-07T00:10:16.540Z,96466.55
2022-10-07T00:12:45.219Z,96466.38
2022-10-07T00:15:13.863Z,96464.31
2022-10-07T00:17:43.691Z,96461.14
2022-10-07T00:20:12.792Z,96465.13
2022-10-07T00:22:44.150Z,96461.72
2022-10-07T00:25:12.758Z,96463.92
2022-10-07T00:27:43.363Z,96460.11
2022-10-07T00:30:13.152Z,96462.30
2022-10-07T00:32:41.731Z,96458.48
2022-10-07T00:35:11.974Z,96455.41
2022-10-07T00:37:42.703Z,96457.61
2022-10-07T00:40:14.217Z,96453.11
2022-10-07T00:42:44.518Z,96444.44
2022-10-07T00:45:20.126Z,96448.55
2022-10-07T00:47:51.891Z,96449.48
2022-10-07T00:50:29.636Z,96449.09
2022-10-07T00:53:00.670Z,96447.44
2022-10-07T00:55:32.348Z,96448.77
2022-10-07T00:58:05.972Z,96445.44
2022-10-07T01:00:35.071Z,96446.70
2022-10-07T01:03:05.465Z,96440.06
2022-10-07T01:05:35.995Z,96445.50
2022-10-07T01:08:04.656Z,96440.16
2022-10-07T01:10:38.443Z,96440.52
2022-10-07T01:13:14.379Z,96438.38
2022-10-07T01:16:10.627Z,96436.06
2022-10-07T01:18:45.070Z,96441.91
2022-10-07T01:21:25.035Z,96438.08
2022-10-07T01:24:16.314Z,96440.48
2022-10-07T01:26:47.894Z,96440.25
2022-10-07T01:29:22.361Z,96432.77
2022-10-07T01:32:08.964Z,96434.35
2022-10-07T01:34:40.003Z,96433.41
2022-10-07T01:37:11.907Z,96434.87
2022-10-07T01:39:43.579Z,96416.64
2022-10-07T01:42:13.272Z,96431.54
2022-10-07T01:44:44.704Z,96432.39
2022-10-07T01:47:13.350Z,96433.72
2022-10-07T01:49:41.966Z,96432.57
2022-10-07T01:52:13.613Z,96434.84
2022-10-07T01:54:48.286Z,96434.05
2022-10-07T01:57:22.444Z,96420.32
2022-10-07T02:00:13.217Z,96429.83
2022-10-07T02:02:56.806Z,96426.48
2022-10-07T02:05:40.513Z,96426.81
2022-10-07T02:08:39.286Z,96421.98
2022-10-07T02:11:19.319Z,96417.77
2022-10-07T02:13:58.367Z,96415.88
2022-10-07T02:16:35.676Z,96413.54
2022-10-07T02:19:07.560Z,96425.48
2022-10-07T02:21:37.739Z,96430.02
2022-10-07T02:24:08.643Z,96432.36
2022-10-07T02:26:38.875Z,96430.95
2022-10-07T02:29:13.397Z,96442.25
2022-10-07T02:31:44.266Z,96438.73
2022-10-07T02:34:19.699Z,96443.41
2022-10-07T02:36:49.207Z,96439.98
2022-10-07T02:39:20.313Z,96441.07
2022-10-07T02:41:58.440Z,96438.42
2022-10-07T02:44:30.095Z,96435.17
2022-10-07T02:47:16.615Z,96437.97
2022-10-07T02:49:48.223Z,96431.73
2022-10-07T02:52:19.612Z,96433.44
2022-10-07T02:55:03.610Z,96433.83
2022-10-07T02:57:37.945Z,96435.55
2022-10-07T03:00:11.101Z,96442.64
2022-10-07T03:02:54.197Z,96438.34
2022-10-07T03:05:24.519Z,96436.73
2022-10-07T03:07:58.578Z,96440.36
2022-10-07T03:10:30.213Z,96440.59
2022-10-07T03:13:00.355Z,96442.33
2022-10-07T03:15:30.542Z,96440.68
2022-10-07T03:17:59.131Z,96448.26
2022-10-07T03:20:35.271Z,96441.77
2022-10-07T03:23:03.806Z,96440.54
2022-10-07T03:25:38.219Z,96437.48
2022-10-07T03:28:06.768Z,96433.91
2022-10-07T03:30:35.564Z,96436.56
2022-10-07T03:33:04.074Z,96426.80
2022-10-07T03:35:35.603Z,96435.01
2022-10-07T03:38:05.840Z,96440.45
2022-10-07T03:40:34.449Z,96430.77
2022-10-07T03:43:03.286Z,96433.19
2022-10-07T03:45:32.396Z,96434.51
2022-10-07T03:48:02.578Z,96432.00
2022-10-07T03:50:31.304Z,96433.02
2022-10-07T03:53:01.544Z,96439.49
2022-10-07T03:55:30.141Z,96436.67
2022-10-07T03:57:59.831Z,96434.19
2022-10-07T04:00:29.310Z,96431.63
2022-10-07T04:02:59.788Z,96436.06
2022-10-07T04:05:35.064Z,96434.34
2022-10-07T04:07:59.802Z,96432.17
2022-10-07T04:10:28.471Z,96436.67
2022-10-07T04:12:57.137Z,96430.77
2022-10-07T04:15:25.883Z,96438.86
2022-10-07T04:17:58.851Z,96437.25
2022-10-07T04:20:30.871Z,96437.44
2022-10-07T04:22:59.664Z,96435.19
2022-10-07T04:25:34.076Z,96437.61
2022-10-07T04:28:06.459Z,96431.37
2022-10-07T04:30:38.473Z,96427.16
2022-10-07T04:33:10.366Z,96432.88
2022-10-07T04:35:41.353Z,96428.98
2022-10-07T04:38:11.312Z,96428.35
2022-10-07T04:40:46.579Z,96430.45
2022-10-07T04:43:30.443Z,96437.85
2022-10-07T04:46:04.815Z,96434.34
2022-10-07T04:48:33.919Z,96434.37
2022-10-07T04:51:09.614Z,96435.52
2022-10-07T04:53:39.560Z,96439.21
2022-10-07T04:56:09.700Z,96435.14
2022-10-07T04:58:38.639Z,96428.08
2022-10-07T05:01:13.581Z,96430.30
2022-10-07T05:03:44.001Z,96429.70
2022-10-07T05:06:14.089Z,96437.33
2022-10-07T05:08:44.324Z,96442.16
2022-10-07T05:11:13.011Z,96443.70
2022-10-07T05:13:43.530Z,96450.72
2022-10-07T05:16:18.084Z,96453.43
2022-10-07T05:18:54.919Z,96461.23
2022-10-07T05:21:30.035Z,96465.25
2022-10-07T05:23:59.003Z,96464.83
2022-10-07T05:26:27.891Z,96463.11
2022-10-07T05:28:56.740Z,96462.87
2022-10-07T05:31:26.467Z,96466.91
2022-10-07T05:33:56.879Z,96472.22
2022-10-07T05:36:25.953Z,96469.39
2022-10-07T05:38:58.569Z,96470.50
2022-10-07T06:11:20.966Z,96487.08
2022-10-07T06:18:14.665Z,96490.07
2022-10-07T06:29:43.800Z,96495.87
2022-10-07T06:32:15.587Z,96503.44
2022-10-07T06:34:56.662Z,96499.50
2022-10-07T06:40:17.410Z,96497.11
2022-10-07T06:45:45.532Z,96505.96
2022-10-07T06:48:19.390Z,96503.91
2022-10-07T06:51:16.953Z,96506.91
2022-10-07T06:53:47.182Z,96510.78
2022-10-07T06:56:16.059Z,96513.45
2022-10-07T06:58:55.291Z,96521.45
2022-10-07T07:01:27.546Z,96518.80
2022-10-07T07:03:57.683Z,96520.84
2022-10-07T07:06:31.476Z,96516.30
2022-10-07T07:09:06.650Z,96522.70
2022-10-07T07:14:36.080Z,96518.78
2022-10-07T07:17:17.758Z,96517.50
2022-10-07T07:19:40.417Z,96515.69
2022-10-07T07:22:10.642Z,96510.91
2022-10-07T07:24:41.673Z,96508.73
2022-10-07T07:27:11.849Z,96506.64
2022-10-07T07:29:46.726Z,96505.80
2022-10-07T07:32:20.111Z,96503.51
2022-10-07T07:34:50.477Z,96496.36
2022-10-07T07:37:28.136Z,96501.56
2022-10-07T07:42:59.878Z,96495.53
2022-10-07T07:45:35.194Z,96495.59
2022-10-07T07:48:07.669Z,96497.30
2022-10-07T07:50:43.143Z,96491.41
2022-10-07T07:53:25.408Z,96487.20
2022-10-07T07:56:05.364Z,96485.98
2022-10-07T07:58:34.719Z,96480.10
2022-10-07T08:01:09.275Z,96485.84
2022-10-07T08:03:38.707Z,96481.13
2022-10-07T08:06:10.268Z,96477.23
2022-10-07T08:08:48.991Z,96473.95
2022-10-07T08:11:21.369Z,96467.25
2022-10-07T08:14:00.129Z,96465.05
2022-10-07T08:16:30.835Z,96460.18
2022-10-07T08:19:01.140Z,96460.36
2022-10-07T08:21:34.005Z,96467.31
2022-10-07T08:24:12.858Z,96454.72
2022-10-07T08:26:42.398Z,96456.86
2022-10-07T08:29:20.973Z,96456.05
2022-10-07T08:31:58.467Z,96450.98
2022-10-07T08:34:36.309Z,96442.84
2022-10-07T08:37:20.009Z,96443.05
2022-10-07T08:39:47.884Z,96440.20
2022-10-07T08:42:20.276Z,96435.97
2022-10-07T08:44:51.821Z,96435.33
2022-10-07T08:47:40.995Z,96424.61
2022-10-07T08:50:37.609Z,96424.44
2022-10-07T08:53:11.750Z,96424.22
2022-10-07T08:56:01.631Z,96424.97
2022-10-07T08:58:55.599Z,96422.95
2022-10-07T09:01:33.846Z,96415.66
2022-10-07T09:04:20.952Z,96412.39
2022-10-07T09:07:01.252Z,96410.86
2022-10-07T09:09:38.882Z,96408.53
2022-10-07T09:12:12.480Z,96404.28
2022-10-07T09:14:44.637Z,96400.66
2022-10-07T09:17:37.648Z,96393.84
2022-10-07T09:20:09.852Z,96386.72
2022-10-07T09:22:46.492Z,96391.19
2022-10-07T09:25:18.386Z,96380.81
2022-10-07T09:27:48.959Z,96374.28
2022-10-07T09:30:18.460Z,96373.36
2022-10-07T09:32:54.518Z,96377.38
2022-10-07T09:35:29.901Z,96382.19
2022-10-07T09:38:07.661Z,96376.98
2022-10-07T09:40:41.455Z,96374.28
2022-10-07T09:43:16.714Z,96378.52
2022-10-07T09:45:47.493Z,96368.50
2022-10-07T09:48:35.581Z,96361.56
2022-10-07T09:51:20.708Z,96365.03
2022-10-07T09:54:02.939Z,96371.20
2022-10-07T09:56:37.680Z,96359.05
2022-10-07T09:59:22.818Z,96359.84
2022-10-07T10:02:28.801Z,96353.86
2022-10-07T10:04:58.482Z,96344.60
2022-10-07T10:07:42.771Z,96343.45
2022-10-07T10:10:26.187Z,96338.39
2022-10-07T10:12:58.126Z,96338.33
2022-10-07T10:15:46.925Z,96334.41
2022-10-07T10:18:37.358Z,96324.79
2022-10-07T10:21:25.894Z,96325.00
2022-10-07T10:23:57.779Z,96316.13
2022-10-07T10:26:48.229Z,96315.52
2022-10-07T10:29:38.028Z,96305.70
2022-10-07T10:32:17.814Z,96308.33
2022-10-07T10:35:03.277Z,96309.27
2022-10-07T10:38:08.275Z,96304.86
2022-10-07T10:40:58.074Z,96301.39
2022-10-07T10:43:46.789Z,96301.12
2022-10-07T10:46:51.675Z,96290.86
2022-10-07T10:49:31.789Z,96284.95
2022-10-07T10:52:45.611Z,96276.20
2022-10-07T10:55:08.384Z,96279.41
2022-10-07T10:57:45.915Z,96278.51
2022-10-07T11:00:23.264Z,96270.49
2022-10-07T11:03:01.628Z,96270.49
2022-10-07T11:05:44.874Z,96260.44
2022-10-07T11:08:27.330Z,96253.59
2022-10-07T11:11:08.241Z,96254.22
2022-10-07T11:13:47.164Z,96257.59
2022-10-07T11:16:25.183Z,96247.43
2022-10-07T11:19:09.028Z,96251.19
2022-10-07T11:21:43.607Z,96244.31
2022-10-07T11:24:42.516Z,96246.39
2022-10-07T11:27:30.867Z,96240.74
2022-10-07T11:30:22.170Z,96236.34
2022-10-07T11:32:58.611Z,96236.21
2022-10-07T11:35:44.024Z,96237.04
2022-10-07T11:38:28.064Z,96234.93
2022-10-07T11:41:11.649Z,96232.21
2022-10-07T11:43:55.124Z,96224.77
2022-10-07T11:46:32.372Z,96228.45
2022-10-07T11:49:22.168Z,96224.09
2022-10-07T11:52:10.223Z,96221.23
2022-10-07T11:54:54.142Z,96214.23
2022-10-07T11:57:33.992Z,96216.25
2022-10-07T12:00:25.582Z,96213.59
2022-10-07T12:03:28.927Z,96225.92
2022-10-07T12:06:02.526Z,96217.52
2022-10-07T12:08:42.735Z,96218.24
2022-10-07T12:11:19.311Z,96221.30
2022-10-07T12:13:54.007Z,96214.48
2022-10-07T12:16:33.903Z,96204.83
2022-10-07T12:19:23.030Z,96204.70
2022-10-07T12:22:05.522Z,96212.47
2022-10-07T12:24:41.917Z,96211.66
2022-10-07T12:27:19.740Z,96212.25
2022-10-07T12:30:02.295Z,96208.83
2022-10-07T12:32:57.521Z,96201.44
2022-10-07T12:35:51.320Z,96204.70
2022-10-07T12:38:33.049Z,96202.66
2022-10-07T12:41:25.101Z,96205.64
2022-10-07T12:44:32.627Z,96203.30
2022-10-07T12:47:17.692Z,96198.06
2022-10-07T12:49:55.742Z,96202.05
2022-10-07T12:52:49.109Z,96188.30
2022-10-07T12:55:29.135Z,96191.98
2022-10-07T12:58:17.079Z,96194.05
2022-10-07T13:01:17.805Z,96190.51
2022-10-07T13:04:05.858Z,96188.39
2022-10-07T13:07:03.145Z,96184.76
2022-10-07T13:10:17.403Z,96177.41
2022-10-07T13:12:52.373Z,96179.09
2022-10-07T13:15:27.054Z,96178.27
2022-10-07T13:18:10.650Z,96174.75
2022-10-07T13:20:50.375Z,96169.19
2022-10-07T13:23:27.233Z,96169.82
2022-10-07T13:25:59.639Z,96166.86
2022-10-07T13:28:47.262Z,96168.69
2022-10-07T13:31:19.540Z,96167.03
2022-10-07T13:33:52.536Z,96163.78
2022-10-07T13:36:28.756Z,96167.16
2022-10-07T13:39:02.167Z,96167.80
2022-10-07T13:41:36.163Z,96164.27
2022-10-07T13:44:12.516Z,96167.33
2022-10-07T13:46:44.279Z,96170.16
2022-10-07T13:49:26.584Z,96169.27
2022-10-07T13:52:03.776Z,96169.13
2022-10-07T13:54:40.262Z,96161.26
2022-10-07T13:57:21.045Z,96162.56
2022-10-07T14:03:17.391Z,96161.80
2022-10-07T14:06:09.587Z,96158.52
2022-10-07T14:08:55.837Z,96158.16
2022-10-07T14:14:35.964Z,96152.52
2022-10-07T14:17:28.324Z,96159.15
2022-10-07T14:20:01.255Z,96150.49
2022-10-07T14:25:31.470Z,96144.38
2022-10-07T14:28:11.580Z,96151.77
2022-10-07T14:31:00.457Z,96150.45
2022-10-07T14:34:18.240Z,96141.71
2022-10-07T14:37:08.525Z,96149.00
2022-10-07T14:39:43.190Z,96148.65
2022-10-07T14:42:48.937Z,96117.53
2022-10-07T14:45:28.804Z,96151.20
2022-10-07T14:48:13.996Z,96139.95
2022-10-07T14:50:45.504Z,96140.16
2022-10-07T14:53:21.039Z,96149.61
2022-10-07T14:55:55.998Z,96085.19
2022-10-07T14:58:27.621Z,96143.09
2022-10-07T15:01:04.117Z,96141.20
2022-10-07T15:03:33.499Z,96142.73
2022-10-07T15:06:07.198Z,96141.61
2022-10-07T15:08:41.555Z,96142.77
2022-10-07T15:11:16.486Z,96142.41
2022-10-07T15:14:03.797Z,96141.45
2022-10-07T15:16:31.185Z,96142.80
2022-10-07T15:19:11.225Z,96138.20
2022-10-07T15:21:48.746Z,96140.30
2022-10-07T15:24:21.504Z,96139.53
2022-10-07T15:26:51.989Z,96140.11
2022-10-07T15:29:22.340Z,96144.51
2022-10-07T15:31:57.862Z,96142.77
2022-10-07T15:34:28.449Z,96136.19
2022-10-07T15:36:59.154Z,96141.55
2022-10-07T15:39:28.348Z,96143.70
2022-10-07T15:41:57.069Z,96144.43
2022-10-07T15:44:27.389Z,96143.05
2022-10-07T15:46:57.881Z,96136.86
2022-10-07T15:49:29.789Z,96142.16
2022-10-07T15:52:03.400Z,96141.53
2022-10-07T15:54:34.333Z,96146.27
2022-10-07T15:57:04.522Z,96147.11
2022-10-07T15:59:38.617Z,96149.23
2022-10-07T16:02:11.450Z,96147.03
2022-10-07T16:04:40.241Z,96155.62
2022-10-07T16:07:12.467Z,96155.12
2022-10-07T16:09:41.877Z,96155.22
2022-10-07T16:12:10.606Z,96157.92
2022-10-07T16:14:39.581Z,96159.92
2022-10-07T16:17:08.482Z,96166.89
2022-10-07T16:19:38.918Z,96167.87
2022-10-07T16:22:07.745Z,96165.86
2022-10-07T16:24:37.440Z,96171.66
2022-10-07T16:27:09.209Z,96173.95
2022-10-07T16:29:56.260Z,96171.70
2022-10-07T16:32:25.006Z,96182.52
2022-10-07T16:34:53.899Z,96180.83
2022-10-07T16:37:27.630Z,96186.41
2022-10-07T16:39:58.204Z,96191.16
2022-10-07T16:42:30.582Z,96190.66
2022-10-07T16:45:02.467Z,96195.59
2022-10-07T16:47:35.512Z,96202.86
2022-10-07T16:50:12.460Z,96193.34
2022-10-07T16:52:50.819Z,96206.17
2022-10-07T16:55:28.443Z,96201.38
2022-10-07T16:57:57.257Z,96210.65
2022-10-07T17:00:26.536Z,96202.80
2022-10-07T17:02:55.323Z,96206.12
2022-10-07T17:05:29.857Z,96203.05
2022-10-07T17:08:00.278Z,96208.70
2022-10-07T17:10:34.812Z,96201.89
2022-10-07T17:13:42.380Z,96207.85
2022-10-07T17:16:19.020Z,96210.12
2022-10-07T17:19:11.627Z,96213.53
2022-10-07T17:21:45.389Z,96205.94
2022-10-07T17:24:32.841Z,96202.83
2022-10-07T17:30:55.051Z,96210.59
2022-10-07T17:33:34.127Z,96209.00
2022-10-07T17:36:17.553Z,96210.33
2022-10-07T17:38:49.775Z,96210.74
2022-10-07T17:41:58.203Z,96210.97
2022-10-07T17:45:04.971Z,96212.95
2022-10-07T17:47:48.494Z,96213.08
2022-10-07T17:53:25.859Z,96209.44
2022-10-07T17:58:59.899Z,96207.55
2022-10-07T18:07:55.345Z,96223.34
2022-10-07T18:10:35.406Z,96224.77
2022-10-07T18:13:26.687Z,96227.50
2022-10-07T18:16:15.819Z,96224.77
2022-10-07T18:28:02.711Z,96231.50
2022-10-07T18:30:46.092Z,96230.84
2022-10-07T18:33:56.570Z,96234.63
2022-10-07T18:36:40.450Z,96233.39
2022-10-07T18:39:33.825Z,96232.08
2022-10-07T19:10:32.258Z,96230.00
2022-10-07T19:17:05.001Z,96227.37
2022-10-07T19:22:53.381Z,96227.86
2022-10-07T19:25:50.898Z,96235.90
2022-10-07T19:28:21.911Z,96229.78
2022-10-07T19:31:09.260Z,96230.20
2022-10-07T19:37:01.295Z,96232.90
2022-10-07T19:39:43.987Z,96232.20
2022-10-07T19:42:13.360Z,96228.93
2022-10-07T19:44:52.403Z,96227.66
2022-10-07T19:50:42.080Z,96233.69
2022-10-07T19:53:33.605Z,96233.07
2022-10-07T19:56:16.054Z,96233.95
2022-10-07T20:05:00.519Z,96232.89
2022-10-07T20:16:27.034Z,96229.35
2022-10-07T20:19:04.831Z,96232.03
2022-10-07T20:20:02.695Z,96235.78
2022-10-07T20:21:56.139Z,96234.01
2022-10-07T20:30:43.106Z,96225.70
2022-10-07T20:36:39.087Z,96219.40
2022-10-07T20:40:02.466Z,96217.42
2022-10-07T20:42:36.618Z,96221.17
2022-10-07T20:45:37.905Z,96217.88
2022-10-07T20:48:23.786Z,96215.55
2022-10-07T20:51:15.285Z,96219.90
2022-10-07T20:54:03.862Z,96212.90
2022-10-07T20:56:39.132Z,96215.23
2022-10-07T20:59:18.695Z,96218.14
2022-10-07T21:05:05.814Z,96218.80
2022-10-07T21:10:49.145Z,96205.83
2022-10-07T21:13:22.952Z,96216.14
2022-10-07T21:16:03.848Z,96209.26
2022-10-07T21:24:13.201Z,96218.80
2022-10-07T21:29:46.791Z,96212.91
2022-10-07T21:32:39.887Z,96207.50
2022-10-07T21:35:11.053Z,96210.50
2022-10-07T21:37:45.709Z,96208.70
2022-10-07T21:40:18.313Z,96207.94
2022-10-07T21:42:56.789Z,96207.94
2022-10-07T21:45:41.567Z,96208.50
2022-10-07T21:51:48.862Z,96204.41
2022-10-07T21:55:23.377Z,96201.97
2022-10-07T21:58:21.454Z,96197.08
2022-10-07T22:05:17.505Z,96189.30
2022-10-07T22:08:42.217Z,96167.15
2022-10-07T22:15:51.123Z,96173.70
2022-10-07T22:18:49.070Z,96172.47
2022-10-07T22:35:29.406Z,96168.94
2022-10-07T22:37:59.415Z,96172.38
2022-10-07T22:43:43.595Z,96176.67
2022-10-07T22:53:30.946Z,96163.61
2022-10-07T23:39:11.323Z,96143.30
2022-10-07T23:41:50.007Z,96150.00
2022-10-07T23:53:37.409Z,96136.14
2022-10-07T23:56:18.976Z,96127.16
2022-10-07T23:59:25.666Z,96129.84
